Weather observations for the past three days for
Big Spring, Big Spring McMahon-Wrinkle Airport
Imperial (Metric)
Date Time (cdt) Wind (mph) Vis. (mi.) Weather Sky Cond. Temperature (ºF) Relative Humidity Wind Chill (°F) Heat Index (°F) Pressure Precipitation (in)
Air Dwpt 6 hour altimeter (in) sea level (mb) 1 hr 3 hr 6 hr
Max. Min.
02 17:15 SE 5 10.00 Overcast OVC080 66.9 41.5 40% 30.17 0.0
02 16:55 SW 6 10.00 Overcast OVC080 66.9 42.8 42% 30.18 0.0
02 16:35 W 10 10.00 Mostly Cloudy BKN080 67.3 42.3 40% 30.19 0.0
02 16:15 W 12 10.00 Partly Cloudy SCT080 67.3 43.2 42% 30.19 0.0
02 15:55 W 9 10.00 Overcast SCT050 OVC080 66.9 42.4 41% 30.2 0.0
02 15:35 SW 9 10.00 Overcast BKN050 OVC070 67.8 42.8 40% 30.21 0.0
02 15:15 SE 5 10.00 Overcast OVC070 66.7 42.4 41% 30.21 0.0
02 14:55 SW 10 10.00 Overcast OVC070 66.2 42.3 42% 30.22 0.0
02 14:35 W 9 10.00 Overcast SCT050 OVC070 65.3 42.1 43% 30.22 0.0
02 14:15 SW 13 10.00 Overcast SCT050 OVC070 65.7 43.3 45% 30.22 0.0
02 13:55 W 8 10.00 Overcast OVC070 65.3 42.3 43% 30.23 0.0
02 13:35 N 8 10.00 Overcast OVC070 64.4 41.5 43% 30.24 0.0
02 13:15 N 7 10.00 Overcast OVC060 64.6 41.9 44% 30.24 0.0
02 12:55 Calm 10.00 Mostly Cloudy BKN070 63.7 40.5 66 52.9 43% 30.24 0.0
02 12:35 SW 5 10.00 Fair CLR 63.9 41.9 45% 30.25 0.0
02 12:15 NW 7 10.00 Fair CLR 65.3 44.6 47% 30.25 0.0
02 11:55 W 10 10.00 Partly Cloudy SCT050 63.3 43 48% 30.26 0.0
02 11:35 W 12 10.00 Fair CLR 63.1 43.5 49% 30.26 0.0
02 11:15 N 8 10.00 Fair CLR 62.4 41.5 47% 30.26 0.0
02 10:55 W 12 G 17 10.00 Fair CLR 61.7 43.2 51% 30.26 0.0
02 10:35 W 9 10.00 Fair CLR 61 41.9 50% 30.26 0.0
02 10:15 W 12 G 18 10.00 Fair CLR 60.1 42.4 52% 30.26 0.0
02 09:55 W 13 10.00 Fair CLR 59.7 41.5 51% 30.26 0.0
02 09:35 W 10 G 17 10.00 Fair CLR 59 42.4 54% 30.25 0.0
02 09:15 W 12 10.00 Fair CLR 57.7 46.6 67% 30.25 0.0
02 08:55 W 9 10.00 Partly Cloudy SCT090 55.9 48 75% 30.25 0.0
02 08:35 W 10 10.00 Partly Cloudy SCT090 54.5 48.9 82% 30.24 0.0
02 08:15 W 10 10.00 Mostly Cloudy BKN090 53.8 49.6 86% 30.24 0.0
02 07:55 W 10 10.00 Overcast OVC090 53.4 49.5 87% 30.23 0.0
02 07:35 W 12 10.00 Overcast OVC090 53.2 49.5 87% 30.22 0.0
02 07:10 W 8 10.00 Overcast OVC090 53.1 49.5 88% 30.21 0.0
02 06:55 W 9 10.00 Overcast OVC090 52.9 49.3 55 51.8 88% 30.21 0.0
02 06:35 W 9 10.00 Overcast OVC090 52.9 49.5 88% 30.2 0.0
02 06:15 W 9 10.00 Overcast OVC090 52.9 49.3 88% 30.2 0.0
02 05:55 W 8 10.00 Overcast OVC090 52.9 49.3 88% 30.2 0.0
02 05:35 W 8 10.00 Overcast OVC090 53.1 48.7 85% 30.19 0.0
02 05:15 W 9 10.00 Overcast OVC090 53.4 48.2 83% 30.19 0.0
02 04:55 W 8 10.00 Overcast OVC090 53.2 48 83% 30.19 0.0
02 04:35 W 9 10.00 Overcast OVC090 53.1 48.6 85% 30.18 0.0
02 04:15 W 8 10.00 Overcast OVC090 52.9 48.4 85% 30.17 0.0
02 03:55 W 9 10.00 Overcast OVC090 53.2 47.7 81% 30.17 0.0
02 03:35 W 9 10.00 Overcast OVC080 53.1 48.4 84% 30.17 0.0
02 03:15 W 8 10.00 Overcast OVC080 52.5 48.2 85% 30.17 0.0
02 02:55 W 8 10.00 Overcast SCT060 OVC080 52.3 47.5 84% 30.17 0.0
02 02:35 W 9 10.00 Mostly Cloudy SCT060 BKN080 BKN090 52.9 48 84% 30.18 0.0
02 02:15 W 10 10.00 Overcast OVC080 53.4 47.7 81% 30.18 0.0
02 01:35 W 7 10.00 Partly Cloudy SCT075 SCT120 53.8 47.7 80% 30.18 0.0
02 01:15 W 6 10.00 Overcast SCT075 OVC120 54.9 46.8 74% 30.18 0.0
02 00:55 W 6 10.00 Overcast BKN090 OVC120 55 46.6 59 55 73% 30.18 0.0
02 00:35 W 7 10.00 Overcast OVC090 55.4 46.2 71% 30.18 0.0
02 00:15 SW 6 10.00 Overcast OVC080 55.6 45.9 70% 30.18 0.0
01 23:55 SE 7 10.00 Overcast BKN080 OVC090 55.9 45.1 67% 30.16 0.0
01 23:35 E 7 10.00 Overcast OVC080 56.3 43.7 63% 30.15 0.0
01 23:15 S 5 10.00 Overcast OVC090 56.3 43.9 63% 30.15 0.0
01 22:55 SE 6 10.00 Overcast OVC090 55.9 44.4 65% 30.14 0.0
01 22:35 W 5 10.00 Overcast OVC090 56.1 44.6 65% 30.14 0.0
01 22:15 N 7 10.00 Overcast OVC100 56.1 44.2 65% 30.13 0.0
01 21:55 NW 6 10.00 Overcast SCT070 OVC100 56.5 43.5 62% 30.13 0.0
01 21:35 N 7 10.00 Overcast SCT070 OVC110 56.5 43.5 62% 30.12 0.0
01 21:15 N 9 10.00 Overcast SCT070 OVC120 56.5 43.5 62% 30.11 0.0
01 20:55 N 8 10.00 Mostly Cloudy BKN070 BKN090 BKN120 56.7 44.1 63% 30.1 0.0
01 20:35 N 9 10.00 Mostly Cloudy SCT070 BKN090 57.2 42.8 59% 30.1 0.0
01 20:15 N 12 10.00 Overcast SCT070 OVC090 57.7 41.9 56% 30.08 0.0
01 19:55 N 16 10.00 Overcast BKN070 OVC090 58.1 41.9 55% 30.08 0.0
01 19:35 N 17 10.00 Overcast OVC090 58.6 42.8 56% 30.07 0.0
01 19:15 NE 13 10.00 Overcast OVC100 58.5 43.3 57% 30.06 0.0
01 18:55 N 16 10.00 Mostly Cloudy BKN100 58.8 43.3 61.3 50.2 57% 30.05 0.0 0.04
01 18:35 NE 12 G 29 10.00 Partly Cloudy SCT100 SCT120 59.2 42.4 54% 30.04 0.0
01 18:15 N 17 G 30 10.00 Mostly Cloudy BKN100 BKN120 61 43.2 52% 30.04 0.0
01 17:55 N 20 G 28 10.00 Overcast BKN034 OVC100 59.4 45.5 60% 30.03 0.0
01 17:35 NE 17 10.00 Overcast SCT028 BKN032 OVC100 59.2 46.8 64% 30.02 0.0
01 17:15 NE 12 G 16 10.00 Overcast SCT027 BKN032 OVC110 58.5 48 68% 30.02 0.0
01 16:55 NE 10 G 20 10.00 Overcast SCT028 OVC110 58.6 48.4 69% 30.02 0.0
01 16:35 NE 13 10.00 Overcast SCT023 SCT070 OVC120 57.9 48.2 70% 30.01 0.0
01 16:15 NE 12 10.00 Overcast BKN021 OVC110 56.8 48.2 73% 30.02 0.0
01 15:55 NE 12 G 20 10.00 Overcast SCT019 OVC110 56.3 51.4 84% 30.02 0.0 0.04
01 15:35 NE 12 10.00 Overcast BKN025 OVC110 52.3 51.4 97% 30.02 0.0
01 15:15 NE 12 10.00 Overcast SCT015 OVC023 51.1 50.2 97% 30.04 0.0
01 14:55 NE 13 10.00 Overcast OVC012 52.3 51.6 97% 30.03 0.0 0.01
01 14:35 NE 12 10.00 Overcast OVC012 51.4 50.7 97% 30.05 0.0
01 14:15 NE 12 10.00 Light Rain BKN010 BKN016 OVC026 52.5 51.8 97% 30.04 0.0
01 13:55 NE 12 10.00 Light Rain SCT009 BKN015 OVC022 52.2 51.4 97% 30.05 0.0 0.03
01 13:35 NE 10 10.00 Light Rain OVC009 52 51.3 97% 30.06 0.0 0.03
01 13:15 N 16 G 25 7.00 Light Rain Fog/Mist BKN007 OVC013 51.6 50.9 97% 30.08 0.0 0.02
01 12:55 N 16 G 22 7.00 Light Rain Fog/Mist OVC007 51.8 51.1 53.1 51.4 97% 30.09 0.0 0.1 0.36
01 12:35 N 16 7.00 Light Rain BKN007 OVC012 51.8 51.1 97% 30.09 0.0 0.06
01 12:15 N 15 G 23 5.00 Light Rain Fog/Mist BKN007 OVC010 51.6 50.9 97% 30.1 0.0 0.03
01 11:55 N 20 5.00 Light Rain Fog/Mist SCT007 BKN012 OVC050 52.3 51.6 97% 30.09 0.0 0.13
01 11:35 N 18 5.00 Light Rain Fog/Mist SCT007 BKN035 OVC045 52.2 51.4 97% 30.09 0.0 0.09
01 11:15 N 16 4.00 Light Rain Fog/Mist SCT010 BKN035 OVC045 52 51.1 97% 30.08 0.0 0.05
01 10:55 N 17 7.00 Light Rain SCT008 BKN015 OVC030 51.6 50.9 97% 30.06 0.0 0.13
01 10:35 N 16 5.00 Light Rain Fog/Mist BKN012 OVC021 51.6 50.9 97% 30.05 0.0 0.1
01 10:15 N 13 5.00 Rain Fog/Mist OVC010 51.8 50.9 97% 30.04 0.0 0.03
01 09:55 NE 14 G 20 10.00 Overcast OVC006 51.8 50.9 97% 30.01 0.0
01 09:35 E 10 G 18 10.00 Overcast OVC006 52.3 51.6 97% 29.99 0.0
01 09:15 NE 10 10.00 Overcast OVC006 52.5 51.6 97% 29.98 0.0
01 08:55 NE 14 7.00 Overcast OVC006 52.7 51.8 97% 29.98 0.0
01 08:35 NE 13 10.00 Overcast OVC006 52.9 52 97% 29.98 0.0
01 08:15 NE 10 10.00 Overcast BKN006 BKN010 OVC016 52.7 52 97% 29.97 0.0
01 07:55 E 10 10.00 Overcast BKN006 OVC018 52.7 51.8 97% 29.98 0.0
01 07:35 NE 10 10.00 Overcast BKN006 BKN020 OVC031 52.7 51.8 97% 29.98 0.0
01 07:15 NE 12 10.00 Overcast BKN006 OVC013 52.7 51.8 97% 29.97 0.0
01 06:55 NE 12 10.00 Overcast BKN006 OVC009 53.2 52.5 56.3 53.2 97% 29.98 0.0 0.01 0.11
01 06:35 NE 10 7.00 Light Rain OVC009 53.4 52.5 97% 29.97 0.0 0.01
01 06:15 NE 7 10.00 Light Rain OVC009 53.4 52.5 97% 29.99 0.0
01 05:55 NE 10 10.00 Overcast OVC006 53.6 52.7 97% 29.98 0.0 0.01
01 05:35 NE 10 10.00 Light Rain BKN006 OVC011 53.8 52.9 97% 29.97 0.0
01 05:15 NE 9 10.00 Overcast BKN006 OVC010 54.1 53.2 97% 29.97 0.0
01 04:55 NE 6 10.00 Overcast OVC006 55 54.1 97% 29.97 0.0
01 04:35 NE 7 10.00 Overcast OVC006 55 54.1 97% 29.97 0.0
01 04:15 NE 7 10.00 Light Rain OVC006 55 54.1 97% 29.96 0.0
01 03:55 NE 9 10.00 Overcast OVC008 55.2 54.3 97% 29.95 0.0 0.09
01 03:35 NE 6 10.00 Light Drizzle BKN006 OVC010 55.6 54.7 97% 29.97 0.0
01 03:15 NE 6 10.00 Light Rain BKN006 OVC012 55.6 54.7 97% 29.98 0.0
01 02:55 NE 7 10.00 Light Rain BKN008 OVC014 55.9 55 97% 29.99 0.0 0.04
01 02:35 N 8 10.00 Light Rain BKN008 BKN016 OVC023 55.8 54.9 97% 29.99 0.0 0.03
01 02:15 NE 7 7.00 Light Rain Fog/Mist BKN008 BKN022 OVC090 55.8 54.9 97% 30 0.0 0.02
01 01:55 NE 7 7.00 Light Rain BKN008 OVC012 55.9 55 97% 30 0.0 0.05
01 01:35 N 9 10.00 Light Rain OVC010 55.9 54.9 96% 30 0.0 0.03
01 01:15 NW 6 10.00 Light Rain BKN010 BKN033 OVC100 55.6 54.5 96% 30 0.0 0.01
01 00:55 E 6 10.00 Light Rain SCT010 BKN050 OVC100 56.5 54.1 65.5 56.5 92% 30 0.0 0.02 0.02
01 00:35 E 9 10.00 Light Rain SCT012 SCT037 OVC100 56.7 53.8 90% 29.99 0.0 0.01
01 00:15 NE 7 10.00 Light Rain SCT013 SCT070 OVC100 57 53.6 88% 30 0.0
30 23:55 E 7 10.00 Light Rain SCT013 SCT060 BKN110 57.2 53.4 87% 30.01 0.0
30 23:35 E 7 10.00 Mostly Cloudy SCT037 SCT060 BKN120 57.6 53.4 86% 30.01 0.0
30 23:15 NE 10 10.00 Light Rain SCT017 BKN037 OVC110 57.7 53.6 86% 29.99 0.0
30 22:55 NE 5 10.00 Light Drizzle SCT017 SCT060 OVC110 58.6 52.7 81% 30.01 0.0
30 22:35 N 6 10.00 Overcast SCT080 OVC110 59.7 51.6 75% 30.03 0.0
30 22:15 Calm 10.00 Partly Cloudy SCT120 59.7 51.4 74% 30 0.0
30 21:55 E 9 10.00 Fair CLR 59.7 51.3 74% 29.99 0.0
30 21:35 E 7 10.00 Fair CLR 59.9 51.1 73% 29.98 0.0
30 21:15 NE 6 10.00 Fair CLR 60.3 50.9 71% 29.97 0.0
30 20:55 E 6 10.00 Fair CLR 61 50.7 69% 29.98 0.0
30 20:35 NE 6 10.00 Partly Cloudy SCT120 61.3 50.5 68% 29.96 0.0
30 20:15 E 5 10.00 Partly Cloudy SCT110 61.7 50.5 67% 29.96 0.0
30 19:55 E 10 G 16 10.00 Partly Cloudy SCT120 62.6 50.5 65% 29.96 0.0
30 19:35 E 5 10.00 Partly Cloudy SCT120 63.7 50.4 62% 29.93 0.0
30 19:15 E 9 10.00 Fair CLR 64.8 50.5 60% 29.92 0.0
30 18:55 NE 9 10.00 Fair CLR 65.1 50.5 68.4 58.3 59% 29.92 0.0
30 18:35 NE 8 10.00 Fair CLR 65.8 49.8 56% 29.91 0.0
30 18:15 E 8 10.00 Fair CLR 66.4 49.6 55% 29.92 0.0
30 17:55 NE 7 10.00 Fair CLR 66.9 49.8 54% 29.91 0.0
30 17:35 N 9 10.00 Fair CLR 66.4 49.6 55% 29.93 0.0
30 17:15 N 13 G 18 10.00 Fair CLR 67.5 49.5 53% 29.93 0.0
30 16:55 N 14 G 22 10.00 Fair CLR 67.1 49.5 53% 29.94 0.0
30 16:35 N 15 10.00 Partly Cloudy SCT027 66 49.6 56% 29.94 0.0
30 16:15 N 12 10.00 Partly Cloudy SCT027 63.9 49.8 60% 29.96 0.0
30 15:55 N 10 G 16 10.00 Fair CLR 63.1 49.5 61% 29.97 0.0
30 15:35 NE 6 10.00 Partly Cloudy SCT023 SCT120 62.6 49.5 62% 29.97 0.0
30 15:15 N 7 10.00 Mostly Cloudy BKN023 BKN120 62.1 49.6 64% 29.98 0.0
30 14:55 N 6 10.00 Mostly Cloudy SCT023 BKN120 61.3 49.1 64% 29.98 0.0
30 14:35 N 5 10.00 Overcast SCT020 SCT027 OVC120 60.6 48.7 65% 29.98 0.0
30 14:15 NW 9 10.00 Overcast OVC020 58.5 48.2 69% 29.98 0.0
30 13:55 N 16 10.00 Overcast OVC020 58.8 48.6 69% 29.98 0.0
30 13:35 N 16 10.00 Overcast OVC020 59 48.2 68% 29.97 0.0
30 13:15 N 13 10.00 Overcast OVC020 59.9 49.5 69% 29.96 0.0
30 12:55 NE 9 10.00 Overcast OVC020 58.8 48.9 59.7 53.2 70% 29.97 0.0 0.02
30 12:35 N 16 10.00 Overcast OVC020 58.5 48.7 70% 29.99 0.0
30 12:15 N 12 10.00 Overcast OVC020 58.3 48.7 71% 30 0.0
30 11:55 E 6 G 16 10.00 Mostly Cloudy BKN016 BKN120 58.5 49.1 71% 29.98 0.0
30 11:35 NE 17 G 29 10.00 Overcast OVC014 58.6 49.6 72% 29.96 0.0
30 10:55 NE 9 G 17 10.00 Overcast BKN012 OVC110 56.8 50.5 80% 29.98 0.0
30 10:35 NE 10 G 24 10.00 Overcast SCT010 OVC100 55.2 51.1 86% 29.93 0.0
30 10:15 E 13 G 17 10.00 Overcast OVC010 55 50.9 86% 29.94 0.0
30 09:55 N 15 10.00 Overcast OVC010 55.2 50.9 85% 30 0.0 0.02
30 09:35 E 13 10.00 Overcast OVC012 55.2 50.9 85% 29.97 0.0
30 09:15 NE 7 10.00 Overcast OVC012 55.2 50.4 84% 29.98 0.0
30 08:55 N 10 10.00 Overcast OVC014 55 49.8 83% 29.99 0.0
30 08:35 N 7 10.00 Overcast BKN014 OVC022 54.9 49.6 83% 30 0.0
30 08:15 N 9 10.00 Mostly Cloudy BKN014 BKN024 BKN120 54.5 49.5 83% 29.99 0.0
30 07:55 NW 7 10.00 Mostly Cloudy BKN120 53.6 48.9 84% 29.97 0.0 0.01
30 07:35 E 12 10.00 Mostly Cloudy BKN120 53.4 49.1 85% 29.93 0.0 0.01
30 07:15 NE 6 10.00 Light Rain SCT021 SCT060 BKN120 53.8 48.9 84% 29.94 0.0 0.01
30 06:55 E 7 7.00 Thunderstorm Light Rain in Vicinity BKN019 OVC024 55 47.3 57.6 54.7 75% 29.97 0.0
30 06:35 N 15 10.00 Overcast OVC019 55.4 46.2 71% 29.98 0.0
30 06:15 N 8 10.00 Overcast OVC019 55.4 46 71% 29.98 0.0
30 05:55 N 13 10.00 Overcast SCT019 OVC027 55.6 45.9 70% 29.97 0.0
30 05:35 NE 6 10.00 Overcast SCT019 OVC027 55.8 46 70% 29.98 0.0
30 05:15 N 10 10.00 Overcast SCT019 OVC027 55.9 45.9 69% 29.97 0.0
30 04:55 N 12 10.00 Overcast OVC027 55.9 45.7 69% 29.95 0.0
30 04:35 NE 9 10.00 Partly Cloudy SCT027 55.9 45.5 68% 29.94 0.0
30 04:15 N 12 10.00 Fair CLR 56.1 45.3 67% 29.93 0.0
30 03:55 NE 9 10.00 Partly Cloudy SCT029 56.3 45.3 67% 29.94 0.0
30 03:35 NE 5 10.00 Fair CLR 56.5 45.1 66% 29.96 0.0
30 03:15 E 6 10.00 Fair CLR 56.5 45 66% 29.97 0.0
30 02:55 N 8 10.00 Fair CLR 56.7 44.4 64% 29.97 0.0
30 02:35 NE 7 10.00 Fair CLR 56.7 44.2 63% 29.97 0.0
30 02:15 NE 6 10.00 Fair CLR 56.8 44.1 63% 29.98 0.0
30 01:55 E 6 10.00 Fair CLR 57 44.1 62% 29.98 0.0
30 01:35 NE 6 10.00 Fair CLR 57.2 44.1 62% 30 0.0
30 01:15 NE 5 10.00 Fair CLR 57.4 43.9 61% 29.99 0.0
30 00:55 NE 8 10.00 Fair CLR 57.6 43.5 66.9 57.6 60% 29.99 0.0
30 00:35 NE 8 10.00 Fair CLR 57.9 43.2 58% 29.99 0.0
30 00:15 NE 9 10.00 Fair CLR 58.3 43.3 58% 29.99 0.0
29 23:55 NE 9 10.00 Fair CLR 58.6 43.5 57% 29.99 0.0
29 23:35 NE 8 10.00 Fair CLR 59 43.5 57% 30 0.0
29 23:15 NE 8 10.00 Fair CLR 59.4 43.7 56% 29.99 0.0
29 22:55 NE 9 10.00 Fair CLR 59.7 44.1 56% 29.99 0.0
29 22:35 NE 9 10.00 Fair CLR 60.3 44.2 56% 29.99 0.0
29 22:15 NE 12 10.00 Fair CLR 60.8 44.6 55% 29.99 0.0
29 21:55 NE 9 10.00 Fair CLR 61.3 44.6 54% 29.98 0.0
29 21:35 NE 9 10.00 Fair CLR 62.1 44.8 53% 29.98 0.0
29 21:15 NE 15 G 25 10.00 Fair CLR 62.8 45 52% 29.96 0.0
29 20:55 NE 10 G 18 10.00 Fair CLR 63.7 45.7 52% 29.96 0.0
29 20:35 NE 8 10.00 Fair CLR 64.4 46 52% 29.95 0.0
29 20:15 NE 8 10.00 Fair CLR 64.9 46.2 51% 29.95 0.0
29 19:55 NE 9 10.00 Fair CLR 65.5 46.6 51% 29.95 0.0
29 19:35 NE 9 10.00 Fair CLR 65.8 46.8 50% 29.96 0.0
29 19:15 NE 10 G 17 10.00 Fair CLR 66.4 46.9 50% 29.94 0.0
29 18:55 NE 9 10.00 Fair CLR 66.9 47.1 71.1 63.1 49% 29.94 0.0
29 18:35 NE 8 10.00 Fair CLR 66.9 47.1 49% 29.96 0.0
29 18:15 NE 7 10.00 Fair CLR 67.8 47.5 48% 29.95 0.0
29 17:55 NE 8 10.00 Fair CLR 68.2 47.5 48% 29.95 0.0
Date Time (cdt) Wind (mph) Vis. (mi.) Weather Sky Cond. Air Dwpt Max. Min. Relative Humidity Wind Chill (°F) Heat Index (°F) altimeter (in) sea level (mb) 1 hr 3 hr 6 hr
6 hour
Temperature (ºF) Pressure Precipitation (in)